KBJJ/BJJ METAR and TAF weather

Enter ICAO airport designator
Station Type Date Time Source
KBJJ METAR 2018/12/12 23:56 UTC NOAA

KBJJ 122356Z AUTO 19007KT 10SM BKN045 03/M03 A2995 RMK AO2 SLP155 T00281028 10033 20017 51009


Station Type Date Time Source
KBJJ Decoded METAR 2018/12/12 23:56 UTC NOAA

WOOSTER WAYNE COUNTY AIRPORT, OH, United States (KBJJ) 40-52N 81-53W 343M
Dec 12, 2018 - 06:56 PM EST / 2018.12.12 2356 UTC
Wind: from the S (190 degrees) at 8 MPH (7 KT):0
Visibility: 10 mile(s):0
Sky conditions: mostly cloudy
Temperature: 37.0 F (2.8 C)
Dew Point: 27.0 F (-2.8 C)
Relative Humidity: 66%
Pressure (altimeter): 29.95 in. Hg (1014 hPa)
Pressure tendency: 0.03 inches (0.9 hPa) higher than three hours ago
ob: KBJJ 122356Z AUTO 19007KT 10SM BKN045 03/M03 A2995 RMK AO2 SLP155 T00281028 10033 20017 51009
cycle: 0

Station Type Date Time Source
KBJJ TAF UTC NOAA

Error!


Example: see airport list